LiveATC.Net - Listen to live air traffic control over the Internet! Contact for advertising information

ICAO: TNCM  IATA: SXM   Airport: Princess Juliana International Airport
City: Philipsburg
Country: Saint Martin   Continent: North America
TNCM METAR Weather: TNCM 081700Z 15012KT 9999 TS FEW015CB SCT017TCU 27/23 Q1014 A2996 TEMPO SHRA RETS CB NW THRU NE
TNCM Flight Activity (FlightAware)
TNCM Tower/App
Feed Status: UP   Listeners: 7
Listen right in your browser - requires Flash (in browser, requires Flash)
Click here to listen with your own player (launches your MP3 player)
TNCM Tower/App Audio Archives
Juliana Approach (only when busy)128.950
Juliana Tower (TNCM)118.700


Unauthorized use prohibited. See Terms of Service

Find LiveATC Audio Streams

Airport/ARTCC Code

(e.g., 124.400, 128.75)
Site-wide search

Browse LiveATC Feeds
LiveATC Coverage Map
Top 50 LiveATC Feeds
Bad Weather Areas

Offer a LiveATC Feed
Press Inquiries

LiveATC on iPhone
LiveATC on Android

Windows Phone
Windows 8/10

LiveATC Mobile
(Mobile browser)

ATC Audio Archives
Interesting Recordings

LiveATC Forums

Home Page
Make a Donation
LiveATC Bookstore

Terms of Use
Privacy Policy

ATC/Radar Sites
U.S. ARTCC Freqs
Canadian Air Freqs


FAA Airport Status
Nat'l Airspace Status
Arrival Demand Charts

Server Software By:

Please make a donation to help us keep growing!